ULLI Airport Information

Runway Information
Runway 10L Length 11146 ft width 197 ft
Elevation 59 ft Threshold 0 ft Heading 106
Runway 28R Length 11146 ft Width 197 ft
Elevation 66 ft Threshold 0 ft Heading 286
Runway 10R Length 12402 ft width 197 ft
Elevation 66 ft Threshold 0 ft Heading 106
Runway 28L Length 12402 ft Width 197 ft
Elevation 79 ft Threshold 0 ft Heading 286
Airport Frequencies
Type APP Name PETERBURG Frequency 129.8 MHZ
Type ATIS Name ATIS Frequency 127.3 MHZ
Type GND Name TAXIING Frequency 121.7 MHZ
Type RDR Name KRUG Frequency 120.3 MHZ
Type TWR Name TWR Frequency 118.1 MHZ
Airport Navaids
Type NDB Name Pulkovo Frequency 342 KHZ
Type NDB Name Pulkovo Frequency 525 KHZ
Type NDB Name Pulkovo Frequency 277 KHZ
Type NDB Name Pulkovo Frequency 303 KHZ
Type VOR-DME Name Sankt-Peterburg Frequency 113400 KHZ
Airport Weather Information & NOTAM
ADDS - METARS form results

(2042 UTC 22 February 2018)
 
METAR text: ULLI 222030Z 26002MPS CAVOK M15/M16 Q1028 R28L/810350 NOSIG
Conditions at: ULLI (ST PETERSBURG , RU) observed 2030 UTC 22 February 2018
Temperature: -15.0°C (5°F)
Dewpoint: -16.0°C (3°F) [RH = 92%]
Pressure (altimeter): 30.35 inches Hg (1028.0 mb)
Winds: from the W (260 degrees) at 5 MPH (4 knots; 2.1 m/s)
Visibility: 6 or more miles (10+ km)
Ceiling: ceiling and visibility are OK
Clouds: unknown
Weather: no significant weather observed at this time

METAR text: ULLI 222000Z 27002MPS CAVOK M15/M16 Q1028 R28L/810350 NOSIG
Conditions at: ULLI (ST PETERSBURG , RU) observed 2000 UTC 22 February 2018
Temperature: -15.0°C (5°F)
Dewpoint: -16.0°C (3°F) [RH = 92%]
Pressure (altimeter): 30.35 inches Hg (1028.0 mb)
Winds: from the W (270 degrees) at 5 MPH (4 knots; 2.1 m/s)
Visibility: 6 or more miles (10+ km)
Ceiling: ceiling and visibility are OK
Clouds: unknown
Weather: no significant weather observed at this time